createdAt,value
2016-04-13T00:00:27.410Z,45.39
2016-04-13T00:01:27.397Z,45.97
2016-04-13T00:02:27.368Z,45.97
2016-04-13T00:03:27.355Z,45.59
2016-04-13T00:04:27.639Z,45.68
2016-04-13T00:05:27.313Z,45.78
2016-04-13T00:06:27.301Z,45.68
2016-04-13T00:07:27.271Z,45.59
2016-04-13T00:08:27.279Z,45.68
2016-04-13T00:09:27.251Z,45.59
2016-04-13T00:10:27.222Z,45.68
2016-04-13T00:11:27.209Z,45.68
2016-04-13T00:12:28.400Z,45.68
2016-04-13T00:13:27.167Z,45.59
2016-04-13T00:14:27.170Z,45.68
2016-04-13T00:15:27.142Z,45.59
2016-04-13T00:16:27.128Z,45.49
2016-04-13T00:17:27.131Z,45.68
2016-04-13T00:18:27.088Z,45.59
2016-04-13T00:19:27.230Z,45.87
2016-04-13T00:20:27.062Z,45.49
2016-04-13T00:21:27.034Z,45.59
2016-04-13T00:22:27.019Z,45.59
2016-04-13T00:23:27.008Z,45.29
2016-04-13T00:24:26.994Z,45.68
2016-04-13T00:25:26.982Z,45.49
2016-04-13T00:26:26.953Z,45.59
2016-04-13T00:27:27.346Z,45.87
2016-04-13T00:28:26.927Z,45.59
2016-04-13T00:29:26.899Z,45.68
2016-04-13T00:30:26.885Z,45.59
2016-04-13T00:31:26.873Z,45.87
2016-04-13T00:32:26.860Z,45.87
2016-04-13T00:33:26.846Z,45.87
2016-04-13T00:34:26.818Z,45.49
2016-04-13T00:35:27.305Z,45.68
2016-04-13T00:36:26.792Z,45.59
2016-04-13T00:37:26.779Z,45.78
2016-04-13T00:38:26.750Z,45.78
2016-04-13T00:39:26.753Z,45.87
2016-04-13T00:40:26.726Z,46.26
2016-04-13T00:41:26.696Z,46.16
2016-04-13T00:42:26.684Z,46.16
2016-04-13T00:43:27.311Z,46.16
2016-04-13T00:44:26.642Z,45.97
2016-04-13T00:45:26.645Z,45.87
2016-04-13T00:46:26.617Z,45.78
2016-04-13T00:47:26.603Z,45.87
2016-04-13T00:48:26.575Z,46.16
2016-04-13T00:49:26.578Z,46.06
2016-04-13T00:50:26.549Z,46.06
2016-04-13T00:51:26.535Z,45.87
2016-04-13T00:52:26.507Z,45.97
2016-04-13T00:53:26.494Z,45.97
2016-04-13T00:54:26.481Z,46.06
2016-04-13T00:55:26.468Z,46.06
2016-04-13T00:56:26.455Z,46.06
2016-04-13T00:57:26.427Z,45.87
2016-04-13T00:58:26.413Z,46.16
2016-04-13T00:59:27.291Z,46.16
2016-04-13T01:00:26.388Z,46.16
2016-04-13T01:01:26.359Z,46.06
2016-04-13T01:02:26.346Z,45.97
2016-04-13T01:03:26.334Z,46.06
2016-04-13T01:04:26.304Z,46.16
2016-04-13T01:05:26.292Z,46.45
2016-04-13T01:06:26.279Z,45.97
2016-04-13T01:07:26.563Z,46.06
2016-04-13T01:08:26.238Z,46.16
2016-04-13T01:09:26.226Z,46.45
2016-04-13T01:10:26.212Z,46.36
2016-04-13T01:11:26.183Z,46.06
2016-04-13T01:12:26.175Z,46.36
2016-04-13T01:13:26.161Z,46.36
2016-04-13T01:14:26.132Z,46.45
2016-04-13T01:15:26.588Z,46.36
2016-04-13T01:16:26.107Z,46.45
2016-04-13T01:17:26.109Z,46.45
2016-04-13T01:18:26.081Z,46.45
2016-04-13T01:19:26.052Z,46.26
2016-04-13T01:20:26.040Z,46.26
2016-04-13T01:21:26.027Z,46.16
2016-04-13T01:22:26.002Z,46.26
2016-04-13T01:23:25.989Z,46.45
2016-04-13T01:24:25.976Z,46.45
2016-04-13T01:25:25.963Z,46.45
2016-04-13T01:26:25.981Z,46.26
2016-04-13T01:27:25.922Z,46.36
2016-04-13T01:28:25.893Z,46.45
2016-04-13T01:29:25.880Z,46.36
2016-04-13T01:30:25.867Z,46.16
2016-04-13T01:31:25.854Z,46.16
2016-04-13T01:32:25.826Z,46.36
2016-04-13T01:33:25.813Z,46.36
2016-04-13T01:34:25.799Z,46.16
2016-04-13T01:35:25.787Z,46.26
2016-04-13T01:36:25.757Z,46.45
2016-04-13T01:37:25.745Z,46.36
2016-04-13T01:38:25.732Z,46.26
2016-04-13T01:39:25.720Z,46.36
2016-04-13T01:40:25.691Z,46.26
2016-04-13T01:41:25.678Z,46.26
2016-04-13T01:42:25.665Z,46.16
2016-04-13T01:43:25.637Z,46.45
2016-04-13T01:44:25.624Z,46.36
2016-04-13T01:45:25.611Z,46.45
2016-04-13T01:46:25.598Z,46.16
2016-04-13T01:47:25.585Z,46.36
2016-04-13T01:48:25.556Z,46.26
2016-04-13T01:49:25.543Z,46.26
2016-04-13T01:50:25.561Z,46.36
2016-04-13T01:51:25.502Z,46.26
2016-04-13T01:52:25.489Z,46.16
2016-04-13T01:53:25.475Z,46.16
2016-04-13T01:54:25.474Z,46.26
2016-04-13T01:55:25.487Z,46.06
2016-04-13T01:56:25.518Z,46.45
2016-04-13T01:57:25.534Z,46.45
2016-04-13T01:58:25.562Z,46.55
2016-04-13T01:59:25.586Z,46.45
2016-04-13T02:00:25.588Z,46.45
2016-04-13T02:01:25.591Z,46.26
2016-04-13T02:02:25.578Z,46.16
2016-04-13T02:03:25.579Z,46.26
2016-04-13T02:04:25.564Z,46.16
2016-04-13T02:05:25.557Z,46.45
2016-04-13T02:06:25.549Z,46.26
2016-04-13T02:07:25.542Z,46.26
2016-04-13T02:08:25.534Z,46.26
2016-04-13T02:09:25.587Z,46.26
2016-04-13T02:10:25.514Z,46.26
2016-04-13T02:11:25.488Z,46.45
2016-04-13T02:12:25.476Z,46.26
2016-04-13T02:13:25.467Z,46.06
2016-04-13T02:14:25.438Z,46.26
2016-04-13T02:15:25.427Z,46.16
2016-04-13T02:16:25.415Z,46.26
2016-04-13T02:17:25.384Z,46.06
2016-04-13T02:18:25.371Z,46.55
2016-04-13T02:19:25.359Z,46.16
2016-04-13T02:20:25.330Z,46.36
2016-04-13T02:21:25.650Z,46.36
2016-04-13T02:22:25.322Z,46.26
2016-04-13T02:23:25.387Z,46.06
2016-04-13T02:24:25.281Z,46.74
2016-04-13T02:25:25.253Z,46.45
2016-04-13T02:26:25.240Z,46.55
2016-04-13T02:27:25.226Z,46.26
2016-04-13T02:28:25.214Z,46.26
2016-04-13T02:29:25.201Z,46.36
2016-04-13T02:30:25.173Z,46.45
2016-04-13T02:31:25.160Z,46.36
2016-04-13T02:32:25.131Z,46.55
2016-04-13T02:33:25.118Z,46.64
2016-04-13T02:34:25.121Z,46.55
2016-04-13T02:35:25.077Z,46.55
2016-04-13T02:36:25.142Z,46.55
2016-04-13T02:37:25.051Z,46.64
2016-04-13T02:38:25.038Z,46.74
2016-04-13T02:39:25.025Z,46.55
2016-04-13T02:40:24.997Z,46.55
2016-04-13T02:41:24.968Z,46.55
2016-04-13T02:42:24.955Z,46.74
2016-04-13T02:43:24.958Z,46.74
2016-04-13T02:44:24.944Z,46.23
2016-04-13T02:45:24.915Z,46.55
2016-04-13T02:46:24.887Z,46.26
2016-04-13T02:47:24.875Z,46.53
2016-04-13T02:48:24.862Z,46.93
2016-04-13T02:49:24.849Z,46.64
2016-04-13T02:50:24.820Z,46.64
2016-04-13T02:51:24.870Z,46.81
2016-04-13T02:52:24.794Z,46.53
2016-04-13T02:53:24.781Z,46.53
2016-04-13T02:54:24.753Z,46.72
2016-04-13T02:55:24.723Z,47.58
2016-04-13T02:56:24.726Z,47.41
2016-04-13T02:57:24.698Z,47.2
2016-04-13T02:58:24.684Z,47.39
2016-04-13T02:59:24.875Z,47.49
2016-04-13T03:00:24.644Z,47.2
2016-04-13T03:01:24.631Z,46.91
2016-04-13T03:02:24.618Z,46.91
2016-04-13T03:03:24.589Z,46.81
2016-04-13T03:04:24.576Z,46.53
2016-04-13T03:05:24.579Z,46.64
2016-04-13T03:06:24.754Z,46.33
2016-04-13T03:07:24.866Z,46.33
2016-04-13T03:08:24.509Z,46.33
2016-04-13T03:09:24.496Z,46.62
2016-04-13T03:10:24.483Z,46.33
2016-04-13T03:11:24.470Z,46.33
2016-04-13T03:12:24.441Z,46.72
2016-04-13T03:13:24.429Z,46.72
2016-04-13T03:14:24.399Z,46.53
2016-04-13T03:15:24.950Z,46.53
2016-04-13T03:16:24.375Z,46.72
2016-04-13T03:17:24.361Z,46.72
2016-04-13T03:18:24.333Z,46.53
2016-04-13T03:19:24.320Z,46.53
2016-04-13T03:20:24.307Z,46.72
2016-04-13T03:21:24.310Z,46.72
2016-04-13T03:22:24.266Z,46.62
2016-04-13T03:23:24.893Z,46.33
2016-04-13T03:24:24.223Z,46.72
2016-04-13T03:25:24.211Z,46.53
2016-04-13T03:26:24.198Z,46.62
2016-04-13T03:27:24.200Z,46.23
2016-04-13T03:28:24.172Z,46.43
2016-04-13T03:29:24.143Z,46.53
2016-04-13T03:30:24.131Z,46.33
2016-04-13T03:31:24.915Z,46.04
2016-04-13T03:32:24.089Z,46.72
2016-04-13T03:33:24.076Z,46.72
2016-04-13T03:34:24.064Z,46.53
2016-04-13T03:35:24.034Z,46.14
2016-04-13T03:36:23.912Z,46.04
2016-04-13T03:37:24.009Z,46.23
2016-04-13T03:38:23.980Z,46.04
2016-04-13T03:39:24.920Z,46.53
2016-04-13T03:40:23.960Z,46.23
2016-04-13T03:41:23.946Z,46.33
2016-04-13T03:42:23.933Z,46.43
2016-04-13T03:43:23.904Z,46.33
2016-04-13T03:44:23.877Z,46.23
2016-04-13T03:45:23.863Z,46.33
2016-04-13T03:46:23.851Z,46.33
2016-04-13T03:47:24.181Z,46.14
2016-04-13T03:48:23.809Z,46.53
2016-04-13T03:49:23.796Z,46.14
2016-04-13T03:50:23.782Z,46.43
2016-04-13T03:51:23.770Z,46.33
2016-04-13T03:52:23.742Z,46.23
2016-04-13T03:53:23.728Z,46.04
2016-04-13T03:54:23.809Z,46.53
2016-04-13T03:55:23.687Z,46.04
2016-04-13T03:56:23.674Z,46.14
2016-04-13T03:57:23.661Z,46.53
2016-04-13T03:58:23.633Z,46.33
2016-04-13T03:59:23.620Z,46.53
2016-04-13T04:00:23.607Z,46.43
2016-04-13T04:01:23.594Z,46.53
2016-04-13T04:02:23.815Z,46.33
2016-04-13T04:03:23.552Z,46.23
2016-04-13T04:04:23.539Z,46.33
2016-04-13T04:05:23.511Z,46.33
2016-04-13T04:06:23.529Z,46.04
2016-04-13T04:07:23.485Z,46.23
2016-04-13T04:08:23.472Z,46.23
2016-04-13T04:09:23.444Z,46.33
2016-04-13T04:10:23.836Z,46.23
2016-04-13T04:11:23.418Z,46.14
2016-04-13T04:12:23.389Z,46.33
2016-04-13T04:13:23.377Z,46.23
2016-04-13T04:14:23.380Z,46.14
2016-04-13T04:15:23.350Z,46.14
2016-04-13T04:16:23.338Z,46.33
2016-04-13T04:17:23.309Z,46.23
2016-04-13T04:18:23.843Z,46.14
2016-04-13T04:19:23.283Z,46.14
2016-04-13T04:20:23.254Z,46.23
2016-04-13T04:21:23.241Z,46.23
2016-04-13T04:22:23.228Z,46.43
2016-04-13T04:23:23.200Z,46.23
2016-04-13T04:24:23.187Z,46.23
2016-04-13T04:25:23.174Z,46.23
2016-04-13T04:26:23.848Z,46.43
2016-04-13T04:27:23.132Z,46.23
2016-04-13T04:28:23.120Z,46.33
2016-04-13T04:29:23.107Z,46.23
2016-04-13T04:30:23.078Z,46.23
2016-04-13T04:31:23.065Z,46.23
2016-04-13T04:32:23.053Z,46.14
2016-04-13T04:33:23.040Z,46.23
2016-04-13T04:34:23.870Z,46.14
2016-04-13T04:35:22.998Z,46.14
2016-04-13T04:36:22.985Z,46.33
2016-04-13T04:37:22.956Z,46.23
2016-04-13T04:38:22.959Z,46.14
2016-04-13T04:39:22.914Z,46.33
2016-04-13T04:40:22.902Z,46.14
2016-04-13T04:41:22.733Z,46.23
2016-04-13T04:42:23.127Z,46.23
2016-04-13T04:43:22.848Z,46.14
2016-04-13T04:44:22.835Z,46.23
2016-04-13T04:45:22.822Z,46.33
2016-04-13T04:46:22.824Z,46.23
2016-04-13T04:47:22.780Z,46.43
2016-04-13T04:48:22.767Z,46.43
2016-04-13T04:49:22.754Z,46.23
2016-04-13T04:50:23.132Z,46.04
2016-04-13T04:51:22.713Z,46.14
2016-04-13T04:52:22.699Z,46.33
2016-04-13T04:53:22.702Z,46.33
2016-04-13T04:54:22.673Z,46.23
2016-04-13T04:55:22.645Z,46.23
2016-04-13T04:56:22.632Z,46.43
2016-04-13T04:57:22.620Z,46.14
2016-04-13T04:58:22.607Z,46.33
2016-04-13T04:59:22.579Z,46.33
2016-04-13T05:00:22.565Z,46.04
2016-04-13T05:01:22.537Z,46.23
2016-04-13T05:02:22.523Z,46.33
2016-04-13T05:03:22.511Z,46.23
2016-04-13T05:04:22.498Z,46.14
2016-04-13T05:05:22.469Z,46.53
2016-04-13T05:06:22.456Z,46.33
2016-04-13T05:07:22.444Z,46.43
2016-04-13T05:08:22.414Z,47.39
2016-04-13T05:09:22.402Z,47.39
2016-04-13T05:10:22.389Z,47.2
2016-04-13T05:11:22.361Z,46.91
2016-04-13T05:12:22.347Z,46.81
2016-04-13T05:13:22.335Z,47.1
2016-04-13T05:14:22.321Z,46.91
2016-04-13T05:15:22.293Z,47
2016-04-13T05:16:22.279Z,46.91
2016-04-13T05:17:22.266Z,47
2016-04-13T05:18:22.238Z,47.1
2016-04-13T05:19:22.226Z,46.91
2016-04-13T05:20:22.213Z,47.1
2016-04-13T05:21:22.184Z,47.1
2016-04-13T05:22:22.188Z,47.2
2016-04-13T05:23:22.157Z,47.39
2016-04-13T05:24:22.145Z,46.72
2016-04-13T05:25:22.117Z,46.23
2016-04-13T05:26:22.120Z,46.14
2016-04-13T05:27:22.091Z,46.04
2016-04-13T05:28:22.078Z,46.53
2016-04-13T05:29:22.065Z,46.33
2016-04-13T05:30:22.037Z,46.23
2016-04-13T05:31:22.023Z,46.14
2016-04-13T05:32:22.011Z,46.04
2016-04-13T05:33:21.981Z,45.95
2016-04-13T05:34:21.985Z,46.14
2016-04-13T05:35:21.956Z,46.21
2016-04-13T05:36:21.943Z,46.12
2016-04-13T05:37:21.914Z,45.76
2016-04-13T05:38:21.917Z,45.54
2016-04-13T05:39:21.888Z,45.56
2016-04-13T05:40:21.861Z,45.56
2016-04-13T05:41:21.847Z,45.56
2016-04-13T05:42:21.834Z,45.54
2016-04-13T05:43:21.805Z,45.66
2016-04-13T05:44:21.793Z,45.66
2016-04-13T05:45:21.780Z,45.85
2016-04-13T05:46:21.766Z,45.95
2016-04-13T05:47:21.738Z,45.66
2016-04-13T05:48:21.725Z,45.37
2016-04-13T05:49:21.712Z,45.66
2016-04-13T05:50:21.684Z,45.64
2016-04-13T05:51:21.671Z,45.45
2016-04-13T05:52:21.673Z,45.47
2016-04-13T05:53:21.645Z,45.54
2016-04-13T05:54:21.617Z,45.37
2016-04-13T05:55:21.604Z,45.45
2016-04-13T05:56:21.621Z,45.64
2016-04-13T05:57:21.562Z,45.73
2016-04-13T05:58:21.549Z,45.28
2016-04-13T05:59:21.537Z,45.18
2016-04-13T06:00:21.523Z,45.28
2016-04-13T06:01:21.495Z,45.15
2016-04-13T06:02:21.482Z,45.28
2016-04-13T06:03:21.469Z,45.28
2016-04-13T06:04:21.440Z,45.54
2016-04-13T06:05:21.442Z,45.76
2016-04-13T06:06:21.415Z,45.54
2016-04-13T06:07:21.401Z,45.45
2016-04-13T06:08:21.373Z,45.66
2016-04-13T06:09:21.361Z,45.54
2016-04-13T06:10:21.347Z,45.54
2016-04-13T06:11:21.334Z,45.64
2016-04-13T06:12:21.306Z,45.54
2016-04-13T06:13:21.293Z,45.95
2016-04-13T06:14:21.280Z,45.56
2016-04-13T06:15:21.251Z,46.41
2016-04-13T06:16:21.238Z,46.21
2016-04-13T06:17:21.225Z,46.31
2016-04-13T06:18:21.196Z,46.41
2016-04-13T06:19:21.183Z,46.23
2016-04-13T06:20:21.171Z,46.14
2016-04-13T06:21:21.158Z,46.12
2016-04-13T06:22:21.129Z,46.21
2016-04-13T06:23:21.117Z,46.12
2016-04-13T06:24:21.088Z,46.23
2016-04-13T06:25:21.090Z,46.12
2016-04-13T06:26:21.124Z,46.12
2016-04-13T06:27:21.049Z,46.23
2016-04-13T06:28:21.021Z,46.14
2016-04-13T06:29:21.007Z,46.04
2016-04-13T06:30:20.995Z,46.12
2016-04-13T06:31:20.966Z,45.83
2016-04-13T06:32:20.968Z,46.23
2016-04-13T06:33:20.940Z,46.43
2016-04-13T06:34:21.114Z,46.62
2016-04-13T06:35:20.914Z,46.91
2016-04-13T06:36:20.886Z,46.91
2016-04-13T06:37:20.872Z,46.81
2016-04-13T06:38:20.860Z,46.62
2016-04-13T06:39:20.847Z,46.33
2016-04-13T06:40:20.818Z,46.53
2016-04-13T06:41:20.806Z,46.14
2016-04-13T06:42:21.136Z,46.62
2016-04-13T06:43:20.764Z,46.23
2016-04-13T06:44:20.750Z,46.23
2016-04-13T06:45:20.738Z,46.04
2016-04-13T06:46:20.710Z,46.04
2016-04-13T06:47:20.697Z,45.85
2016-04-13T06:48:20.683Z,45.95
2016-04-13T06:49:20.671Z,46.04
2016-04-13T06:50:21.141Z,46.14
2016-04-13T06:51:20.630Z,46.33
2016-04-13T06:52:20.444Z,45.56
2016-04-13T06:53:20.604Z,45.47
2016-04-13T06:54:20.590Z,45.85
2016-04-13T06:55:20.562Z,45.56
2016-04-13T06:56:20.549Z,45.85
2016-04-13T06:57:20.552Z,45.85
2016-04-13T06:58:21.117Z,45.37
2016-04-13T06:59:20.495Z,45.28
2016-04-13T07:00:20.482Z,45.76
2016-04-13T07:01:20.468Z,45.28
2016-04-13T07:02:20.440Z,45.56
2016-04-13T07:03:20.427Z,45.47
2016-04-13T07:04:20.414Z,45.37
2016-04-13T07:05:20.401Z,45.18
2016-04-13T07:06:20.435Z,45.28
2016-04-13T07:07:20.359Z,45.28
2016-04-13T07:08:20.347Z,45.18
2016-04-13T07:09:20.333Z,45.47
2016-04-13T07:10:20.305Z,44.99
2016-04-13T07:11:20.308Z,44.99
2016-04-13T07:12:20.279Z,44.99
2016-04-13T07:13:20.266Z,44.72
2016-04-13T07:14:21.160Z,44.79
2016-04-13T07:15:20.225Z,44.72
2016-04-13T07:16:20.212Z,44.79
2016-04-13T07:17:20.199Z,44.51
2016-04-13T07:18:20.186Z,44.31
2016-04-13T07:19:20.158Z,44.31
2016-04-13T07:20:20.144Z,44.43
2016-04-13T07:21:20.133Z,44.34
2016-04-13T07:22:20.416Z,44.24
2016-04-13T07:23:20.106Z,43.85
2016-04-13T07:24:20.078Z,44.14
2016-04-13T07:25:20.080Z,44.05
2016-04-13T07:26:20.052Z,43.93
2016-04-13T07:27:20.023Z,44.05
2016-04-13T07:28:20.026Z,44.05
2016-04-13T07:29:20.060Z,44.05
2016-04-13T07:30:20.421Z,44.14
2016-04-13T07:31:19.956Z,44.05
2016-04-13T07:32:19.942Z,44.05
2016-04-13T07:33:19.929Z,43.76
2016-04-13T07:34:19.917Z,43.66
2016-04-13T07:35:19.887Z,43.66
2016-04-13T07:36:19.891Z,43.66
2016-04-13T07:37:20.018Z,43.66
2016-04-13T07:38:19.850Z,43.57
2016-04-13T07:39:19.837Z,43.37
2016-04-13T07:40:19.808Z,43.66
2016-04-13T07:41:19.795Z,43.37
2016-04-13T07:42:19.782Z,43.57
2016-04-13T07:43:19.769Z,43.57
2016-04-13T07:44:19.756Z,43.76
2016-04-13T07:45:20.039Z,43.57
2016-04-13T07:46:19.714Z,43.37
2016-04-13T07:47:19.702Z,43.57
2016-04-13T07:48:19.688Z,43.47
2016-04-13T07:49:19.660Z,43.66
2016-04-13T07:50:19.647Z,43.47
2016-04-13T07:51:19.635Z,43.57
2016-04-13T07:52:19.622Z,43.57
2016-04-13T07:53:20.046Z,43.08
2016-04-13T07:54:19.580Z,43.37
2016-04-13T07:55:19.566Z,43.18
2016-04-13T07:56:19.538Z,43.28
2016-04-13T07:57:19.526Z,43.18
2016-04-13T07:58:19.512Z,43.37
2016-04-13T07:59:19.500Z,43.57
2016-04-13T08:00:19.487Z,43.18
2016-04-13T08:01:20.068Z,43.37
2016-04-13T08:02:19.446Z,43.28
2016-04-13T08:03:19.432Z,43.47
2016-04-13T08:04:19.404Z,42.8
2016-04-13T08:05:19.406Z,42.8
2016-04-13T08:06:19.393Z,42.8
2016-04-13T08:07:19.365Z,42.99
2016-04-13T08:08:19.341Z,42.8
2016-04-13T08:09:20.078Z,42.7
2016-04-13T08:10:19.314Z,42.6
2016-04-13T08:11:19.302Z,42.89
2016-04-13T08:12:19.289Z,42.7
2016-04-13T08:13:19.260Z,42.89
2016-04-13T08:14:19.248Z,42.7
2016-04-13T08:15:19.235Z,42.6
2016-04-13T08:16:19.222Z,42.7
2016-04-13T08:17:19.350Z,42.8
2016-04-13T08:18:19.180Z,42.89
2016-04-13T08:19:19.152Z,42.99
2016-04-13T08:20:19.155Z,42.89
2016-04-13T08:21:19.126Z,42.99
2016-04-13T08:22:19.285Z,42.8
2016-04-13T08:23:19.085Z,42.8
2016-04-13T08:24:19.088Z,42.89
2016-04-13T08:25:19.356Z,43.01
2016-04-13T08:26:19.046Z,42.91
2016-04-13T08:27:19.033Z,42.91
2016-04-13T08:28:19.004Z,43.01
2016-04-13T08:29:18.991Z,42.72
2016-04-13T08:30:18.979Z,42.53
2016-04-13T08:31:18.950Z,42.63
2016-04-13T08:32:18.937Z,42.91
2016-04-13T08:33:19.376Z,42.91
2016-04-13T08:34:18.911Z,42.91
2016-04-13T08:35:18.898Z,42.63
2016-04-13T08:36:18.869Z,42.53
2016-04-13T08:37:18.857Z,42.53
2016-04-13T08:38:18.844Z,42.63
2016-04-13T08:39:18.831Z,42.14
2016-04-13T08:40:18.802Z,42.53
2016-04-13T08:41:18.789Z,42.24
2016-04-13T08:42:18.776Z,41.66
2016-04-13T08:43:18.747Z,41.97
2016-04-13T08:44:18.750Z,41.66
2016-04-13T08:45:18.737Z,41.76
2016-04-13T08:46:18.708Z,41.76
2016-04-13T08:47:18.696Z,41.76
2016-04-13T08:48:18.667Z,41.56
2016-04-13T08:49:18.655Z,41.66
2016-04-13T08:50:18.642Z,41.86
2016-04-13T08:51:18.613Z,41.86
2016-04-13T08:52:18.725Z,41.76
2016-04-13T08:53:18.587Z,41.66
2016-04-13T08:54:18.590Z,41.76
2016-04-13T08:55:18.546Z,41.76
2016-04-13T08:56:18.533Z,41.86
2016-04-13T08:57:18.521Z,41.86
2016-04-13T08:58:18.491Z,41.95
2016-04-13T08:59:18.479Z,41.78
2016-04-13T09:00:18.465Z,41.86
2016-04-13T09:01:18.437Z,41.76
2016-04-13T09:02:18.440Z,41.86
2016-04-13T09:03:18.411Z,41.76
2016-04-13T09:04:18.398Z,41.76
2016-04-13T09:05:18.369Z,41.86
2016-04-13T09:06:18.356Z,41.86
2016-04-13T09:07:18.484Z,41.95
2016-04-13T09:08:18.331Z,41.86
2016-04-13T09:09:18.317Z,41.88
2016-04-13T09:10:18.305Z,41.97
2016-04-13T09:11:18.276Z,41.88
2016-04-13T09:12:18.263Z,41.88
2016-04-13T09:13:18.250Z,41.88
2016-04-13T09:14:18.222Z,41.97
2016-04-13T09:15:18.225Z,41.88
2016-04-13T09:16:18.196Z,41.88
2016-04-13T09:17:18.183Z,41.97
2016-04-13T09:18:18.154Z,41.97
2016-04-13T09:19:18.157Z,41.88
2016-04-13T09:20:18.113Z,41.88
2016-04-13T09:21:18.116Z,42.16
2016-04-13T09:22:18.181Z,42.07
2016-04-13T09:23:18.074Z,42.16
2016-04-13T09:24:18.046Z,42.16
2016-04-13T09:25:18.032Z,42.16
2016-04-13T09:26:18.035Z,41.97
2016-04-13T09:27:18.007Z,41.88
2016-04-13T09:28:17.994Z,41.88
2016-04-13T09:29:17.966Z,41.97
2016-04-13T09:30:17.968Z,41.97
2016-04-13T09:31:17.924Z,41.97
2016-04-13T09:32:17.926Z,41.78
2016-04-13T09:33:17.898Z,41.78
2016-04-13T09:34:17.884Z,41.88
2016-04-13T09:35:17.872Z,41.88
2016-04-13T09:36:17.843Z,41.88
2016-04-13T09:37:17.830Z,42.07
2016-04-13T09:38:17.818Z,42.16
2016-04-13T09:39:17.820Z,42.26
2016-04-13T09:40:17.792Z,42.65
2016-04-13T09:41:17.763Z,42.55
2016-04-13T09:42:17.750Z,42.55
2016-04-13T09:43:17.737Z,42.65
2016-04-13T09:44:17.724Z,42.55
2016-04-13T09:45:17.695Z,42.55
2016-04-13T09:46:17.683Z,42.46
2016-04-13T09:47:17.654Z,42.26
2016-04-13T09:48:17.641Z,42.26
2016-04-13T09:49:17.628Z,41.97
2016-04-13T09:50:17.616Z,41.89
2016-04-13T09:51:17.603Z,42.07
2016-04-13T09:52:17.574Z,42.16
2016-04-13T09:53:17.561Z,41.78
2016-04-13T09:54:17.635Z,41.78
2016-04-13T09:55:17.525Z,41.88
2016-04-13T09:56:17.532Z,41.71
2016-04-13T09:57:17.488Z,41.78
2016-04-13T09:58:17.522Z,41.89
2016-04-13T09:59:17.541Z,41.78
2016-04-13T10:00:17.302Z,41.61
2016-04-13T10:01:17.427Z,41.78
2016-04-13T10:02:17.430Z,41.99
2016-04-13T10:03:17.245Z,41.89
2016-04-13T10:04:17.412Z,41.97
2016-04-13T10:05:17.367Z,41.89
2016-04-13T10:06:17.354Z,41.8
2016-04-13T10:07:17.325Z,41.89
2016-04-13T10:08:17.343Z,41.51
2016-04-13T10:09:17.361Z,41.51
2016-04-13T10:10:17.270Z,41.41
2016-04-13T10:11:17.258Z,41.41
2016-04-13T10:12:17.245Z,41.51
2016-04-13T10:13:18.231Z,41.71
2016-04-13T10:14:23.906Z,41.41
2016-04-13T10:15:22.925Z,41.41
2016-04-13T10:16:26.599Z,41.39
2016-04-13T10:17:17.306Z,41.49
2016-04-13T10:18:17.152Z,41.59
2016-04-13T10:19:17.123Z,41.88
2016-04-13T10:20:17.126Z,41.78
2016-04-13T10:21:17.097Z,42.09
2016-04-13T10:22:17.085Z,41.99
2016-04-13T10:23:17.072Z,41.97
2016-04-13T10:24:17.043Z,41.99
2016-04-13T10:25:17.374Z,41.89
2016-04-13T10:26:17.017Z,41.8
2016-04-13T10:27:16.988Z,41.99
2016-04-13T10:28:16.991Z,41.8
2016-04-13T10:29:16.963Z,41.8
2016-04-13T10:30:16.973Z,41.99
2016-04-13T10:31:16.928Z,41.8
2016-04-13T10:32:16.915Z,41.8
2016-04-13T10:33:17.371Z,41.71
2016-04-13T10:34:16.873Z,41.89
2016-04-13T10:35:16.876Z,41.89
2016-04-13T10:36:16.848Z,41.51
2016-04-13T10:37:16.850Z,41.51
2016-04-13T10:38:16.804Z,41.41
2016-04-13T10:39:16.807Z,41.41
2016-04-13T10:40:16.779Z,41.22
2016-04-13T10:41:17.422Z,41.22
2016-04-13T10:42:16.737Z,41.32
2016-04-13T10:43:16.725Z,41.13
2016-04-13T10:44:16.712Z,41.51
2016-04-13T10:45:16.714Z,41.41
2016-04-13T10:46:16.685Z,41.32
2016-04-13T10:47:16.672Z,41.22
2016-04-13T10:48:16.644Z,40.94
2016-04-13T10:49:16.694Z,40.94
2016-04-13T10:50:16.602Z,40.94
2016-04-13T10:51:16.605Z,40.84
2016-04-13T10:52:16.576Z,40.94
2016-04-13T10:53:16.579Z,41.13
2016-04-13T10:54:16.550Z,40.94
2016-04-13T10:55:22.522Z,40.95
2016-04-13T10:56:26.775Z,40.45
2016-04-13T10:57:23.137Z,40.45
2016-04-13T10:58:28.077Z,40.45
2016-04-13T10:59:20.846Z,40.16
2016-04-13T11:00:23.051Z,40.07
2016-04-13T11:01:25.204Z,40.28
2016-04-13T11:02:28.127Z,39.87
2016-04-13T11:03:32.471Z,39.97
2016-04-13T11:04:37.469Z,39.99
2016-04-13T11:05:29.031Z,39.87
2016-04-13T11:06:21.369Z,40.26
2016-04-13T11:07:17.778Z,39.78
2016-04-13T11:08:21.858Z,40.07
2016-04-13T11:09:29.971Z,39.97
2016-04-13T11:10:41.927Z,39.68
2016-04-13T11:11:29.922Z,39.87
2016-04-13T11:12:38.336Z,40.45
2016-04-13T11:13:33.344Z,40.26
2016-04-13T11:14:57.929Z,39.59
2016-04-13T11:16:05.032Z,39.2
2016-04-13T11:17:29.401Z,38.72
2016-04-13T11:18:46.577Z,38.72
2016-04-13T11:19:40.535Z,38.22
2016-04-13T11:20:38.134Z,38.31
2016-04-13T11:21:40.293Z,38.43
2016-04-13T11:22:34.140Z,38.43
2016-04-13T11:23:34.035Z,37.95
2016-04-13T11:24:34.007Z,38.24
2016-04-13T11:25:33.995Z,38.12
2016-04-13T11:26:33.998Z,37.95
2016-04-13T11:27:33.969Z,37.95
2016-04-13T11:28:33.941Z,37.56
2016-04-13T11:29:33.930Z,37.27
2016-04-13T11:30:33.917Z,37.37
2016-04-13T11:31:33.919Z,37.37
2016-04-13T11:32:33.890Z,37.18
2016-04-13T11:33:33.862Z,36.99
2016-04-13T11:34:33.849Z,36.89
2016-04-13T11:35:33.836Z,36.41
2016-04-13T11:36:33.824Z,36.51
2016-04-13T11:37:33.810Z,36.31
2016-04-13T11:38:33.813Z,36.68
2016-04-13T11:39:33.768Z,37.08
2016-04-13T11:40:33.771Z,37.37
2016-04-13T11:41:33.790Z,36.99
2016-04-13T11:42:33.729Z,36.6
2016-04-13T11:43:33.701Z,36.79
2016-04-13T11:44:33.688Z,36.89
2016-04-13T11:45:33.675Z,36.99
2016-04-13T11:46:33.663Z,36.99
2016-04-13T11:47:33.649Z,37.08
2016-04-13T11:48:33.637Z,37.18
2016-04-13T11:49:33.812Z,37.27
2016-04-13T11:50:33.595Z,37.19
2016-04-13T11:51:33.581Z,37.37
2016-04-13T11:52:33.553Z,37.48
2016-04-13T11:53:33.540Z,37.76
2016-04-13T11:54:33.528Z,37.96
2016-04-13T11:55:33.515Z,37.68
2016-04-13T11:56:33.486Z,37.96
2016-04-13T11:57:33.833Z,37.77
2016-04-13T11:58:33.460Z,37.87
2016-04-13T11:59:33.447Z,37.77
2016-04-13T12:00:33.434Z,37.87
2016-04-13T12:01:33.406Z,37.96
2016-04-13T12:02:33.408Z,37.68
2016-04-13T12:03:33.396Z,37.96
2016-04-13T12:04:33.367Z,37.87
2016-04-13T12:05:33.839Z,37.87
2016-04-13T12:06:33.325Z,37.87
2016-04-13T12:07:33.313Z,37.87
2016-04-13T12:08:33.285Z,37.68
2016-04-13T12:09:33.288Z,37.77
2016-04-13T12:10:33.259Z,37.68
2016-04-13T12:11:33.247Z,37.87
2016-04-13T12:12:33.249Z,37.98
2016-04-13T12:13:33.830Z,37.89
2016-04-13T12:14:33.208Z,38.16
2016-04-13T12:15:33.195Z,38.18
2016-04-13T12:16:33.166Z,38.37
2016-04-13T12:17:33.153Z,38.26
2016-04-13T12:18:33.124Z,38.18
2016-04-13T12:19:33.127Z,38.08
2016-04-13T12:20:33.114Z,37.79
2016-04-13T12:21:33.085Z,37.89
2016-04-13T12:22:33.057Z,37.6
2016-04-13T12:23:33.044Z,37.7
2016-04-13T12:24:33.031Z,37.89
2016-04-13T12:25:33.034Z,37.87
2016-04-13T12:26:33.005Z,37.96
2016-04-13T12:27:32.993Z,37.96
2016-04-13T12:28:32.979Z,38.18
2016-04-13T12:29:33.107Z,38.37
2016-04-13T12:30:32.954Z,38.18
2016-04-13T12:31:32.925Z,38.18
2016-04-13T12:32:32.913Z,37.96
2016-04-13T12:33:32.884Z,38.06
2016-04-13T12:34:32.887Z,38.16
2016-04-13T12:35:32.858Z,38.18
2016-04-13T12:36:32.828Z,38.18
2016-04-13T12:37:33.129Z,38.18
2016-04-13T12:38:32.803Z,37.96
2016-04-13T12:39:32.806Z,37.98
2016-04-13T12:40:32.778Z,38.08
2016-04-13T12:41:32.765Z,38.26
2016-04-13T12:42:32.736Z,38.37
2016-04-13T12:43:32.723Z,38.54
2016-04-13T12:44:32.710Z,38.35
2016-04-13T12:45:33.900Z,38.37
2016-04-13T12:46:32.684Z,38.56
2016-04-13T12:47:32.655Z,38.46
2016-04-13T12:48:32.643Z,38.76
2016-04-13T12:49:32.630Z,38.85
2016-04-13T12:50:32.617Z,38.85
2016-04-13T12:51:32.605Z,38.85
2016-04-13T12:52:32.732Z,38.95
2016-04-13T12:53:32.562Z,38.85
2016-04-13T12:54:32.565Z,38.95